Time;durP1;ratioP1;P1;durP2;ratioP2;P2;SDS_P1;SDS_P2;PMS_P1;PMS_P2;Temp;Humidity;BMP_temperature;BMP_pressure;BME280_temperature;BME280_humidity;BME280_pressure;Samples;Min_cycle;Max_cycle;Signal;HPM_P1;HPM_P2
2023/01/19 00:00:07;;;;;;;238.30;225.80;;;1.70;99.90;;;;;;5049394;28;20447;-59
2023/01/19 00:02:32;;;;;;;219.52;208.00;;;1.60;99.90;;;;;;5048578;28;20488;-59
2023/01/19 00:04:58;;;;;;;206.50;195.48;;;1.60;99.90;;;;;;5047350;28;20500;-59
2023/01/19 00:07:24;;;;;;;214.18;202.82;;;1.50;99.90;;;;;;5049851;28;20425;-59
2023/01/19 00:09:49;;;;;;;226.83;214.60;;;1.60;99.90;;;;;;5051031;28;20401;-60
2023/01/19 00:12:16;;;;;;;214.30;202.87;;;1.60;99.90;;;;;;5051792;28;20407;-60
2023/01/19 00:14:42;;;;;;;200.90;189.90;;;1.70;99.90;;;;;;5051937;28;20417;-60
2023/01/19 00:17:07;;;;;;;197.80;187.07;;;1.60;99.90;;;;;;5052501;28;20462;-54
2023/01/19 00:19:33;;;;;;;202.05;190.95;;;1.70;99.90;;;;;;5054882;28;20393;-59
2023/01/19 00:21:58;;;;;;;208.30;197.07;;;1.70;99.90;;;;;;5056680;28;20384;-59
2023/01/19 00:24:24;;;;;;;195.70;185.10;;;1.70;99.90;;;;;;5055860;28;20703;-58
2023/01/19 00:26:49;;;;;;;185.37;175.17;;;1.80;99.90;;;;;;5055898;28;20393;-59
2023/01/19 00:29:15;;;;;;;197.10;186.07;;;1.70;99.90;;;;;;5054749;28;20393;-59
2023/01/19 00:31:41;;;;;;;181.10;171.17;;;1.80;99.90;;;;;;5054933;28;21006;-59
2023/01/19 00:34:07;;;;;;;176.35;166.73;;;1.80;99.90;;;;;;5055788;28;20381;-59
2023/01/19 00:36:33;;;;;;;185.30;175.02;;;1.80;99.90;;;;;;5054810;28;20495;-58
2023/01/19 00:38:59;;;;;;;180.10;170.00;;;1.80;99.90;;;;;;5053785;28;20488;-59
2023/01/19 00:44:10;;;;;;;178.73;168.85;;;1.80;99.90;;;;;;5054615;28;20763;-59
2023/01/19 00:46:36;;;;;;;185.52;175.18;;;1.80;99.90;;;;;;5054518;28;20824;-58
2023/01/19 00:49:01;;;;;;;194.17;183.20;;;1.80;99.90;;;;;;5054002;28;20420;-59
2023/01/19 00:51:27;;;;;;;174.90;164.60;;;1.90;99.90;;;;;;5053399;28;20484;-59
2023/01/19 00:53:53;;;;;;;186.47;175.87;;;1.90;99.90;;;;;;5056170;28;20454;-59
2023/01/19 00:56:18;;;;;;;177.57;167.67;;;1.80;99.90;;;;;;5056030;28;20491;-59
2023/01/19 00:58:44;;;;;;;189.10;178.65;;;1.80;99.90;;;;;;5055080;28;20431;-59
2023/01/19 01:01:11;;;;;;;182.48;172.27;;;1.80;99.90;;;;;;5054473;28;20396;-59
2023/01/19 01:03:37;;;;;;;174.35;164.43;;;1.90;99.90;;;;;;5055579;28;20765;-59
2023/01/19 01:06:03;;;;;;;197.48;186.57;;;1.90;99.90;;;;;;5056314;28;20429;-58
2023/01/19 01:08:29;;;;;;;179.25;169.45;;;1.90;99.90;;;;;;5056410;28;20484;-59
2023/01/19 01:10:55;;;;;;;184.48;174.27;;;1.90;99.90;;;;;;5055935;28;20536;-59
2023/01/19 01:13:21;;;;;;;179.85;169.88;;;2.00;99.90;;;;;;5055886;28;20409;-59
2023/01/19 01:15:54;;;;;;;182.00;171.77;;;2.00;99.90;;;;;;5056263;28;20409;-59
2023/01/19 01:18:20;;;;;;;171.90;162.32;;;2.00;99.90;;;;;;5057858;28;20392;-57
2023/01/19 01:20:46;;;;;;;178.65;168.80;;;1.90;99.90;;;;;;5057572;28;20385;-59
2023/01/19 01:23:12;;;;;;;189.37;178.97;;;1.90;99.90;;;;;;5057081;28;20392;-57
2023/01/19 01:25:38;;;;;;;179.35;169.68;;;1.90;99.90;;;;;;5057376;28;21033;-59
2023/01/19 01:28:07;;;;;;;192.05;181.52;;;1.90;99.90;;;;;;5056983;28;20405;-59
2023/01/19 01:30:39;;;;;;;186.20;175.95;;;2.00;99.90;;;;;;5056842;28;20425;-59
2023/01/19 01:33:05;;;;;;;176.05;166.25;;;2.00;99.90;;;;;;5055577;28;20803;-59
2023/01/19 01:35:32;;;;;;;181.85;171.60;;;2.00;99.90;;;;;;5053898;28;20412;-58
2023/01/19 01:37:58;;;;;;;193.50;182.52;;;2.00;99.90;;;;;;5052731;28;20696;-58
2023/01/19 01:40:24;;;;;;;188.60;177.85;;;2.00;99.90;;;;;;5052720;28;20386;-59
2023/01/19 01:42:50;;;;;;;192.05;181.20;;;2.10;99.90;;;;;;5052582;28;20412;-55
2023/01/19 01:45:29;;;;;;;195.10;184.10;;;2.10;99.90;;;;;;5052334;28;20515;-58
2023/01/19 01:48:13;;;;;;;197.98;187.05;;;2.10;99.90;;;;;;5051872;28;20424;-57
2023/01/19 01:51:22;;;;;;;194.32;183.52;;;2.10;99.90;;;;;;5050186;28;20378;-59
2023/01/19 01:53:32;;;;;;;198.27;187.48;;;2.10;99.90;;;;;;5050966;28;20668;-59
2023/01/19 01:56:01;;;;;;;197.20;186.18;;;2.10;99.90;;;;;;5050054;28;20495;-60
2023/01/19 01:58:27;;;;;;;213.18;201.45;;;2.10;99.90;;;;;;5053208;28;20385;-57
2023/01/19 02:03:37;;;;;;;201.45;189.90;;;2.10;99.90;;;;;;5051564;28;20439;-59
2023/01/19 02:06:06;;;;;;;206.60;195.15;;;2.20;99.90;;;;;;5050216;28;20386;-59
2023/01/19 02:14:06;;;;;;;198.80;187.80;;;2.20;99.90;;;;;;5051192;28;20392;-58
2023/01/19 02:16:33;;;;;;;195.07;184.30;;;2.20;99.90;;;;;;5049773;28;20691;-59
2023/01/19 02:19:00;;;;;;;197.77;186.95;;;2.20;99.90;;;;;;5050955;28;20384;-58
2023/01/19 02:21:58;;;;;;;206.38;194.95;;;2.20;99.90;;;;;;5052191;28;20382;-59
2023/01/19 02:24:24;;;;;;;206.02;194.70;;;2.20;99.90;;;;;;5051716;28;20424;-59
2023/01/19 02:26:50;;;;;;;248.05;234.30;;;2.20;99.90;;;;;;5052408;28;20382;-59
2023/01/19 02:29:23;;;;;;;219.10;207.05;;;2.20;99.90;;;;;;5052269;28;20785;-59
2023/01/19 02:31:49;;;;;;;202.07;190.90;;;2.20;99.90;;;;;;5054108;28;20449;-59
2023/01/19 02:34:18;;;;;;;224.88;212.65;;;2.20;99.90;;;;;;5054404;28;20461;-59
2023/01/19 02:36:54;;;;;;;199.02;187.85;;;2.20;99.90;;;;;;5053589;28;20432;-59
2023/01/19 02:39:35;;;;;;;210.15;199.02;;;2.30;99.90;;;;;;5053880;28;20437;-59
2023/01/19 02:42:05;;;;;;;225.38;213.18;;;2.30;99.90;;;;;;5053252;28;20388;-58
2023/01/19 02:44:32;;;;;;;212.23;200.63;;;2.30;99.90;;;;;;5053397;28;20410;-58
2023/01/19 02:46:58;;;;;;;217.13;205.40;;;2.30;99.90;;;;;;5053369;28;20881;-58
2023/01/19 02:49:27;;;;;;;220.70;208.77;;;2.30;99.90;;;;;;5054568;28;20665;-59
2023/01/19 02:51:53;;;;;;;215.27;203.65;;;2.30;99.90;;;;;;5052750;28;20733;-56
2023/01/19 02:54:36;;;;;;;218.82;207.27;;;2.30;99.90;;;;;;5053615;28;20896;-59
2023/01/19 02:57:42;;;;;;;226.50;214.35;;;2.30;99.90;;;;;;5049772;28;20458;-60
2023/01/19 03:00:37;;;;;;;218.52;206.88;;;2.30;99.90;;;;;;5052416;28;20622;-59
2023/01/19 03:03:23;;;;;;;210.93;199.55;;;2.30;99.90;;;;;;4997670;28;20394;-58
2023/01/19 03:05:56;;;;;;;225.98;214.00;;;2.40;99.90;;;;;;5053544;28;20705;-59
2023/01/19 03:08:43;;;;;;;225.13;213.20;;;2.40;99.90;;;;;;5053798;28;20658;-56
2023/01/19 03:11:12;;;;;;;240.05;227.38;;;2.40;99.90;;;;;;5053236;28;20378;-55
2023/01/19 03:13:43;;;;;;;236.97;224.27;;;2.40;99.90;;;;;;5052336;28;20437;-57
2023/01/19 03:16:15;;;;;;;254.55;241.32;;;2.40;99.90;;;;;;5038936;28;20405;-59
2023/01/19 03:18:43;;;;;;;253.10;239.98;;;2.40;99.90;;;;;;5036982;28;20377;-59
2023/01/19 03:21:12;;;;;;;241.27;228.70;;;2.40;99.90;;;;;;5050623;28;20416;-57
2023/01/19 03:23:40;;;;;;;280.40;265.05;;;2.40;99.90;;;;;;5050402;28;20469;-58
2023/01/19 03:26:10;;;;;;;268.05;253.77;;;2.40;99.90;;;;;;5047821;28;20425;-56
2023/01/19 03:28:38;;;;;;;242.55;229.98;;;2.40;99.90;;;;;;5048677;28;20393;-59
2023/01/19 03:31:14;;;;;;;249.88;236.77;;;2.40;99.90;;;;;;5051497;28;20389;-58
2023/01/19 03:33:45;;;;;;;254.00;240.73;;;2.40;99.90;;;;;;5084590;28;20382;-59
2023/01/19 03:36:20;;;;;;;281.20;266.42;;;2.40;99.90;;;;;;5050764;28;20408;-58
2023/01/19 03:38:48;;;;;;;291.02;275.52;;;2.40;99.90;;;;;;5051188;28;20666;-59
2023/01/19 03:41:18;;;;;;;288.30;273.23;;;2.40;99.90;;;;;;5052348;28;20384;-59
2023/01/19 03:43:46;;;;;;;350.00;328.30;;;2.50;99.90;;;;;;5051952;28;20595;-59
2023/01/19 03:46:16;;;;;;;295.65;280.15;;;2.50;99.90;;;;;;5052656;28;20397;-58
2023/01/19 03:48:42;;;;;;;298.97;282.70;;;2.50;99.90;;;;;;5052773;28;20385;-59
2023/01/19 03:51:09;;;;;;;319.60;302.60;;;2.50;99.90;;;;;;5054194;28;20389;-58
2023/01/19 03:53:35;;;;;;;315.92;299.20;;;2.50;99.90;;;;;;5058480;28;20744;-56
2023/01/19 03:56:01;;;;;;;314.92;298.33;;;2.50;99.90;;;;;;5058043;28;20808;-59
2023/01/19 03:58:27;;;;;;;335.38;317.50;;;2.50;99.90;;;;;;5057296;28;20412;-59
2023/01/19 04:00:53;;;;;;;374.95;353.58;;;2.50;99.90;;;;;;5057090;28;20392;-58
2023/01/19 04:03:18;;;;;;;339.25;321.10;;;2.50;99.90;;;;;;5056930;28;20852;-58
2023/01/19 04:05:46;;;;;;;331.80;314.27;;;2.50;99.90;;;;;;5058645;28;20447;-58
2023/01/19 04:08:11;;;;;;;322.58;305.65;;;2.50;99.90;;;;;;5058410;28;20468;-58
2023/01/19 04:10:37;;;;;;;320.33;303.03;;;2.50;99.90;;;;;;5057558;28;20558;-58
2023/01/19 04:13:03;;;;;;;320.80;304.07;;;2.50;99.90;;;;;;5056108;28;20547;-60
2023/01/19 04:15:30;;;;;;;327.97;310.60;;;2.50;99.90;;;;;;5056010;28;20409;-59
2023/01/19 04:17:57;;;;;;;315.88;299.10;;;2.50;99.90;;;;;;5056506;28;20373;-57
2023/01/19 04:20:23;;;;;;;347.95;329.38;;;2.50;99.90;;;;;;5055959;28;20508;-59
2023/01/19 04:22:48;;;;;;;322.90;305.92;;;2.60;99.90;;;;;;5056545;28;20472;-59
2023/01/19 04:25:15;;;;;;;332.60;314.27;;;2.60;99.90;;;;;;5055132;28;20423;-59
2023/01/19 04:27:40;;;;;;;322.83;305.45;;;2.50;99.90;;;;;;5055029;28;20393;-59
2023/01/19 04:30:08;;;;;;;329.75;311.35;;;2.50;99.90;;;;;;5054841;28;20423;-58
2023/01/19 04:32:34;;;;;;;315.80;298.30;;;2.50;99.90;;;;;;5056645;28;20455;-59
2023/01/19 04:34:59;;;;;;;304.80;287.98;;;2.50;99.90;;;;;;5055618;28;20413;-59
2023/01/19 04:37:25;;;;;;;301.87;284.60;;;2.50;99.90;;;;;;5057813;28;20385;-60
2023/01/19 04:39:50;;;;;;;285.20;268.80;;;2.60;99.90;;;;;;5057832;28;20382;-56
2023/01/19 04:42:16;;;;;;;276.38;260.45;;;2.60;99.90;;;;;;5058953;28;20369;-59
2023/01/19 04:44:41;;;;;;;291.88;275.40;;;2.60;99.90;;;;;;5058805;28;20409;-58
2023/01/19 04:47:07;;;;;;;303.93;286.57;;;2.60;99.90;;;;;;5058032;28;20401;-60
2023/01/19 04:49:36;;;;;;;289.83;273.07;;;2.60;99.90;;;;;;5058918;28;20424;-59
2023/01/19 04:52:03;;;;;;;310.17;292.73;;;2.50;99.90;;;;;;5058147;28;20454;-59
2023/01/19 04:54:29;;;;;;;311.77;293.85;;;2.50;99.90;;;;;;5056998;28;20398;-56
2023/01/19 04:56:55;;;;;;;323.63;304.92;;;2.50;99.90;;;;;;5055251;28;20396;-58
2023/01/19 04:59:20;;;;;;;320.02;302.17;;;2.60;99.90;;;;;;5058517;28;20401;-57
2023/01/19 05:01:46;;;;;;;351.03;330.87;;;2.50;99.90;;;;;;5053197;28;20390;-58
2023/01/19 05:04:11;;;;;;;306.37;289.50;;;2.60;99.90;;;;;;5052981;28;20419;-59
2023/01/19 05:06:37;;;;;;;307.13;289.90;;;2.60;99.90;;;;;;5055273;28;20510;-59
2023/01/19 05:09:03;;;;;;;304.77;287.25;;;2.50;99.90;;;;;;5056371;28;20389;-57
2023/01/19 05:11:28;;;;;;;313.23;295.25;;;2.60;99.90;;;;;;5054227;28;20405;-59
2023/01/19 05:13:54;;;;;;;310.10;292.33;;;2.60;99.90;;;;;;5053886;28;20400;-57
2023/01/19 05:16:19;;;;;;;299.43;282.00;;;2.60;99.90;;;;;;5052368;28;20855;-59
2023/01/19 05:18:45;;;;;;;321.43;303.50;;;2.50;99.90;;;;;;5051134;28;20385;-57
2023/01/19 05:21:10;;;;;;;313.63;295.77;;;2.60;99.90;;;;;;5051818;28;20397;-59
2023/01/19 05:23:36;;;;;;;327.60;308.67;;;2.60;99.90;;;;;;5050632;28;20556;-60
2023/01/19 05:26:03;;;;;;;377.87;357.20;;;2.60;99.90;;;;;;5050188;28;20459;-59
2023/01/19 05:28:30;;;;;;;393.75;372.25;;;2.60;99.90;;;;;;5052271;28;20396;-59
2023/01/19 05:30:55;;;;;;;395.27;374.17;;;2.60;99.90;;;;;;5052759;28;20381;-58
2023/01/19 05:33:21;;;;;;;367.43;347.53;;;2.60;99.90;;;;;;5054327;28;20642;-57
2023/01/19 05:35:51;;;;;;;393.15;371.63;;;2.60;99.90;;;;;;5053382;28;20441;-59
2023/01/19 05:38:17;;;;;;;391.13;370.03;;;2.70;99.90;;;;;;5052892;28;20389;-57
2023/01/19 05:40:43;;;;;;;357.58;338.15;;;2.70;99.90;;;;;;5052599;28;20397;-59
2023/01/19 05:43:09;;;;;;;360.65;341.38;;;2.70;99.90;;;;;;5049807;28;20400;-59
2023/01/19 05:45:35;;;;;;;344.67;325.83;;;2.70;99.90;;;;;;5050197;28;20519;-60
2023/01/19 05:48:00;;;;;;;354.90;335.27;;;2.70;99.90;;;;;;5048781;28;20412;-59
2023/01/19 05:50:26;;;;;;;370.73;349.88;;;2.60;99.90;;;;;;5048463;28;20389;-59
2023/01/19 05:52:52;;;;;;;355.10;335.67;;;2.70;99.90;;;;;;5048576;28;20952;-60
2023/01/19 05:55:18;;;;;;;364.83;344.65;;;2.70;99.90;;;;;;5049897;28;20669;-59
2023/01/19 05:57:44;;;;;;;380.25;358.80;;;2.60;99.90;;;;;;5049414;28;20413;-59
2023/01/19 06:00:10;;;;;;;359.33;339.27;;;2.70;99.90;;;;;;5046291;28;20385;-60
2023/01/19 06:02:36;;;;;;;356.27;336.70;;;2.60;99.90;;;;;;5044231;28;20382;-60
2023/01/19 06:05:01;;;;;;;384.47;362.83;;;2.60;99.90;;;;;;5044084;28;20478;-59
2023/01/19 06:07:27;;;;;;;426.50;402.57;;;2.60;99.90;;;;;;5045789;28;20389;-56
2023/01/19 06:09:53;;;;;;;427.30;403.33;;;2.60;99.90;;;;;;5045731;28;20870;-60
2023/01/19 06:12:18;;;;;;;415.60;392.70;;;2.60;99.90;;;;;;5046404;28;20397;-59
2023/01/19 06:14:44;;;;;;;382.97;361.93;;;2.60;99.90;;;;;;5045911;28;20443;-59
2023/01/19 06:17:09;;;;;;;382.30;360.83;;;2.70;99.90;;;;;;5047278;28;20389;-59
2023/01/19 06:19:35;;;;;;;403.50;381.33;;;2.70;99.90;;;;;;5046968;28;20393;-59
2023/01/19 06:22:01;;;;;;;392.97;371.17;;;2.70;99.90;;;;;;5044782;28;20421;-60
2023/01/19 06:24:28;;;;;;;437.40;412.40;;;2.70;99.90;;;;;;5044435;28;20388;-60
2023/01/19 06:26:54;;;;;;;437.20;412.05;;;2.60;99.90;;;;;;5045569;28;20385;-59
2023/01/19 06:29:20;;;;;;;478.95;452.25;;;2.60;99.90;;;;;;5043865;28;20393;-60
2023/01/19 06:31:46;;;;;;;442.50;417.93;;;2.60;99.90;;;;;;5045444;28;20413;-60
2023/01/19 06:34:12;;;;;;;437.73;414.03;;;2.60;99.90;;;;;;5044282;28;20784;-60
2023/01/19 06:36:37;;;;;;;449.13;423.83;;;2.60;99.90;;;;;;5047576;28;20539;-60
2023/01/19 06:39:04;;;;;;;464.53;438.10;;;2.60;99.90;;;;;;5047557;28;20644;-60
2023/01/19 06:41:32;;;;;;;463.17;436.75;;;2.60;99.90;;;;;;5047602;28;20459;-60
2023/01/19 06:43:57;;;;;;;530.85;499.05;;;2.60;99.90;;;;;;5047188;28;20382;-60
2023/01/19 06:46:23;;;;;;;587.85;553.13;;;2.60;99.90;;;;;;5048297;28;20403;-60
2023/01/19 06:48:48;;;;;;;556.87;524.43;;;2.50;99.90;;;;;;5048328;28;20619;-60
2023/01/19 06:51:14;;;;;;;558.17;523.77;;;2.60;99.90;;;;;;5048706;28;20416;-59
2023/01/19 06:53:39;;;;;;;605.23;568.47;;;2.50;99.90;;;;;;5045212;28;20620;-60
2023/01/19 06:56:06;;;;;;;603.75;567.42;;;2.50;99.90;;;;;;5041965;28;20456;-59
2023/01/19 06:58:33;;;;;;;587.42;552.13;;;2.50;99.90;;;;;;5041839;28;20381;-60
2023/01/19 07:01:06;;;;;;;597.80;562.28;;;2.60;99.90;;;;;;5039012;28;20377;-59
2023/01/19 07:03:34;;;;;;;552.15;519.85;;;2.60;99.90;;;;;;5036410;28;20753;-60
2023/01/19 07:06:05;;;;;;;534.17;503.23;;;2.60;99.90;;;;;;5034619;28;20400;-59
2023/01/19 07:08:31;;;;;;;476.83;450.67;;;2.70;99.90;;;;;;5031825;28;20393;-60
2023/01/19 07:11:03;;;;;;;419.77;396.67;;;2.70;99.90;;;;;;5037432;28;21003;-59
2023/01/19 07:13:29;;;;;;;440.15;416.08;;;2.70;99.90;;;;;;5035140;28;20746;-59
2023/01/19 07:15:54;;;;;;;421.20;398.35;;;2.70;99.90;;;;;;5038069;28;20727;-59
2023/01/19 07:18:20;;;;;;;444.70;420.30;;;2.70;99.90;;;;;;5041649;28;20657;-56
2023/01/19 07:20:48;;;;;;;449.40;424.83;;;2.70;99.90;;;;;;5039751;28;20405;-60
2023/01/19 07:23:14;;;;;;;432.30;408.77;;;2.70;99.90;;;;;;5036612;28;20424;-58
2023/01/19 07:25:40;;;;;;;421.60;398.50;;;2.70;99.90;;;;;;5036594;28;20421;-60
2023/01/19 07:28:06;;;;;;;453.58;428.63;;;2.80;99.90;;;;;;5041174;28;20482;-60
2023/01/19 07:30:32;;;;;;;464.33;436.95;;;2.80;99.90;;;;;;5042728;28;20405;-60
2023/01/19 07:32:57;;;;;;;442.80;417.87;;;2.80;99.90;;;;;;5042151;28;20385;-60
2023/01/19 07:35:24;;;;;;;424.17;401.17;;;2.80;99.90;;;;;;5042167;28;20728;-58
2023/01/19 07:37:49;;;;;;;428.83;405.52;;;2.70;99.90;;;;;;5042030;28;20967;-60
2023/01/19 07:40:15;;;;;;;429.73;405.50;;;2.80;99.90;;;;;;5041982;28;20722;-58
2023/01/19 07:42:49;;;;;;;431.33;407.03;;;2.80;99.90;;;;;;5042552;28;20750;-58
2023/01/19 07:45:16;;;;;;;452.73;427.48;;;2.70;99.90;;;;;;5042531;28;20699;-60
2023/01/19 07:47:43;;;;;;;446.73;421.50;;;2.70;99.90;;;;;;5042293;28;20393;-59
2023/01/19 07:50:10;;;;;;;475.33;448.42;;;2.80;99.90;;;;;;5042247;28;20725;-60
2023/01/19 07:52:35;;;;;;;488.70;461.25;;;2.70;99.90;;;;;;5041298;28;20450;-59
2023/01/19 07:55:01;;;;;;;562.17;529.63;;;2.70;99.90;;;;;;5042230;28;20413;-60
2023/01/19 07:57:27;;;;;;;570.63;536.83;;;2.70;99.90;;;;;;5041818;28;20381;-61
2023/01/19 07:59:53;;;;;;;612.28;576.60;;;2.70;99.90;;;;;;5038291;28;20570;-59
2023/01/19 08:02:18;;;;;;;639.07;601.03;;;2.60;99.90;;;;;;5037150;28;20783;-57
2023/01/19 08:04:46;;;;;;;663.70;624.20;;;2.70;99.90;;;;;;5033852;28;20377;-60
2023/01/19 08:07:12;;;;;;;671.08;629.47;;;2.70;99.90;;;;;;5032686;28;20458;-59
2023/01/19 08:09:38;;;;;;;672.90;632.45;;;2.70;99.90;;;;;;5029499;28;20386;-60
2023/01/19 08:12:03;;;;;;;570.53;537.50;;;2.70;99.90;;;;;;5030531;28;20377;-60
2023/01/19 08:14:29;;;;;;;585.67;551.73;;;2.70;99.90;;;;;;5034366;28;20648;-58
2023/01/19 08:16:58;;;;;;;538.93;508.33;;;2.70;99.90;;;;;;5034521;28;20447;-58
2023/01/19 08:19:24;;;;;;;543.47;512.63;;;2.70;99.90;;;;;;5039430;28;20564;-60
2023/01/19 08:21:49;;;;;;;601.93;567.73;;;2.70;99.90;;;;;;5040535;28;20697;-60
2023/01/19 08:24:21;;;;;;;536.03;505.70;;;2.70;99.90;;;;;;5040517;28;20382;-60
2023/01/19 08:26:47;;;;;;;491.20;463.17;;;2.80;99.90;;;;;;5039846;28;20561;-59
2023/01/19 08:29:13;;;;;;;549.45;517.55;;;2.80;99.90;;;;;;5040403;28;20394;-60
2023/01/19 08:31:39;;;;;;;495.47;466.63;;;2.90;99.90;;;;;;5040483;28;20466;-60
2023/01/19 08:34:04;;;;;;;511.90;482.67;;;2.80;99.90;;;;;;5039841;28;20390;-60
2023/01/19 08:36:30;;;;;;;500.47;471.70;;;2.80;99.90;;;;;;5038866;28;20507;-60
2023/01/19 08:38:56;;;;;;;454.87;429.20;;;2.90;99.90;;;;;;5039327;28;20450;-60
2023/01/19 08:41:21;;;;;;;506.77;477.80;;;2.90;99.90;;;;;;5039392;28;20393;-60
2023/01/19 08:43:48;;;;;;;541.85;510.98;;;2.80;99.90;;;;;;5023926;28;20435;-60
2023/01/19 08:46:20;;;;;;;555.05;523.28;;;2.80;99.90;;;;;;5021367;28;20549;-61
2023/01/19 08:48:48;;;;;;;537.97;506.95;;;2.80;99.90;;;;;;5020827;28;20418;-60
2023/01/19 08:51:14;;;;;;;467.15;441.02;;;2.90;99.90;;;;;;5021719;28;20660;-60
2023/01/19 08:53:41;;;;;;;432.30;407.73;;;2.90;99.90;;;;;;5021985;28;20426;-60
2023/01/19 08:56:11;;;;;;;443.00;417.63;;;2.90;99.90;;;;;;5020353;28;20603;-57
2023/01/19 08:58:38;;;;;;;427.67;403.63;;;2.90;99.90;;;;;;5021462;28;20840;-59
2023/01/19 09:01:04;;;;;;;425.30;401.30;;;2.90;99.90;;;;;;5018767;28;20383;-60
2023/01/19 09:03:30;;;;;;;461.67;436.23;;;2.90;99.90;;;;;;5020197;28;20460;-60
2023/01/19 09:05:55;;;;;;;511.13;482.15;;;2.90;99.90;;;;;;5015957;28;20441;-58
2023/01/19 09:08:21;;;;;;;513.35;484.65;;;2.90;99.90;;;;;;5017115;28;20463;-60
2023/01/19 09:10:50;;;;;;;535.63;505.57;;;2.90;99.90;;;;;;5020339;28;20403;-60
2023/01/19 09:13:17;;;;;;;457.48;432.33;;;2.90;99.90;;;;;;5017686;28;20402;-59
2023/01/19 09:15:43;;;;;;;504.75;476.00;;;2.90;99.90;;;;;;5016563;28;20520;-59
2023/01/19 09:18:12;;;;;;;449.03;423.40;;;2.90;99.90;;;;;;5018160;28;20598;-60
2023/01/19 09:20:41;;;;;;;443.88;418.33;;;2.90;99.90;;;;;;5020129;28;20406;-59
2023/01/19 09:23:09;;;;;;;469.57;443.07;;;2.90;99.90;;;;;;5021939;28;20444;-59
2023/01/19 09:25:35;;;;;;;497.05;468.05;;;2.90;99.90;;;;;;5020134;28;20820;-60
2023/01/19 09:28:01;;;;;;;511.25;482.52;;;2.90;99.90;;;;;;5018536;28;20387;-60
2023/01/19 09:30:27;;;;;;;609.83;574.37;;;2.90;99.90;;;;;;5019255;28;20394;-60
2023/01/19 09:32:53;;;;;;;609.00;573.07;;;2.90;99.90;;;;;;5022613;28;20391;-59
2023/01/19 09:35:18;;;;;;;599.33;564.00;;;2.90;99.90;;;;;;5023443;28;20415;-59
2023/01/19 09:37:47;;;;;;;760.90;711.67;;;2.90;99.90;;;;;;5022941;28;20565;-59
2023/01/19 09:40:15;;;;;;;828.45;772.30;;;2.80;99.90;;;;;;5023095;28;20394;-60
2023/01/19 09:42:50;;;;;;;848.08;791.60;;;2.80;99.90;;;;;;5023567;28;20375;-60
2023/01/19 09:45:32;;;;;;;896.38;834.65;;;2.80;99.90;;;;;;5022876;28;20438;-59
2023/01/19 09:48:00;;;;;;;857.28;798.25;;;2.80;99.90;;;;;;5020986;28;20422;-58
2023/01/19 09:50:30;;;;;;;941.58;875.15;;;2.70;99.90;;;;;;5022317;28;20471;-60
2023/01/19 09:53:12;;;;;;;940.80;874.47;;;2.70;99.90;;;;;;5024618;28;20817;-60
2023/01/19 09:55:40;;;;;;;912.67;848.63;;;2.80;99.90;;;;;;5022976;28;20468;-60
2023/01/19 09:58:18;;;;;;;919.72;855.53;;;2.80;99.90;;;;;;5022386;28;20379;-59
2023/01/19 10:00:51;;;;;;;879.70;819.53;;;2.80;99.90;;;;;;5020864;28;20433;-59
2023/01/19 10:03:17;;;;;;;845.90;786.95;;;2.80;99.90;;;;;;5020579;28;20414;-59
2023/01/19 10:06:00;;;;;;;854.95;797.30;;;2.80;99.90;;;;;;5021966;28;20421;-60
2023/01/19 10:08:54;;;;;;;799.53;746.70;;;2.90;99.90;;;;;;5019295;28;20403;-59
2023/01/19 10:11:35;;;;;;;639.45;600.58;;;2.90;99.90;;;;;;5020589;28;20391;-60
2023/01/19 10:14:12;;;;;;;639.10;600.50;;;2.90;99.90;;;;;;5022559;28;20391;-60
2023/01/19 10:16:59;;;;;;;636.42;597.75;;;2.90;99.90;;;;;;5020447;28;20399;-60
2023/01/19 10:19:32;;;;;;;632.65;595.20;;;2.90;99.90;;;;;;5022395;28;20398;-60
2023/01/19 10:22:02;;;;;;;633.28;595.45;;;2.90;99.90;;;;;;5022951;28;20418;-60
2023/01/19 10:24:28;;;;;;;635.20;597.60;;;2.90;99.90;;;;;;5022106;28;20427;-60
2023/01/19 10:26:55;;;;;;;555.13;523.50;;;3.00;99.90;;;;;;5021202;28;20391;-60
2023/01/19 10:29:27;;;;;;;545.50;514.08;;;3.00;99.90;;;;;;5021834;28;20588;-59
2023/01/19 10:32:03;;;;;;;560.37;528.20;;;3.00;99.90;;;;;;5020343;28;20505;-59
2023/01/19 10:34:29;;;;;;;599.72;564.88;;;3.00;99.90;;;;;;5018318;28;20426;-60
2023/01/19 10:37:34;;;;;;;620.57;584.33;;;3.00;99.90;;;;;;5017820;28;20503;-60
2023/01/19 10:40:09;;;;;;;523.25;493.00;;;3.00;99.90;;;;;;4994186;28;20635;-59
2023/01/19 10:42:35;;;;;;;504.23;474.85;;;3.00;99.90;;;;;;5045487;28;20379;-60
2023/01/19 10:45:01;;;;;;;516.85;487.38;;;3.00;99.90;;;;;;5025385;28;20489;-60
2023/01/19 10:47:34;;;;;;;542.00;510.42;;;3.00;99.90;;;;;;5028790;28;20391;-60
2023/01/19 10:50:22;;;;;;;468.85;441.98;;;3.10;99.90;;;;;;5026883;28;20383;-60
2023/01/19 10:52:53;;;;;;;492.17;464.33;;;3.10;99.90;;;;;;5028337;28;20383;-60
2023/01/19 10:55:29;;;;;;;491.52;463.50;;;3.10;99.90;;;;;;5027989;28;20399;-60
2023/01/19 10:57:55;;;;;;;543.47;512.17;;;3.10;99.90;;;;;;5029001;28;20763;-60
2023/01/19 11:00:37;;;;;;;578.50;545.10;;;3.00;99.90;;;;;;5032845;28;20395;-56
2023/01/19 11:03:04;;;;;;;536.13;505.70;;;3.20;99.90;;;;;;5034908;28;20375;-57
2023/01/19 11:05:34;;;;;;;589.58;555.58;;;3.20;99.90;;;;;;5034698;28;20402;-55
2023/01/19 11:07:59;;;;;;;429.42;405.15;;;3.40;99.90;;;;;;5034787;28;20387;-59
2023/01/19 11:10:29;;;;;;;431.88;407.50;;;3.40;99.90;;;;;;5026485;28;20391;-60
2023/01/19 11:13:14;;;;;;;391.10;368.60;;;3.40;99.90;;;;;;5027154;28;20476;-60
2023/01/19 11:15:52;;;;;;;356.33;336.20;;;3.40;99.90;;;;;;5026421;28;20406;-60
2023/01/19 11:18:38;;;;;;;400.27;377.77;;;3.30;99.90;;;;;;5023287;28;20383;-60
2023/01/19 11:21:11;;;;;;;404.45;381.63;;;3.30;99.90;;;;;;5023761;28;20405;-60
2023/01/19 11:23:50;;;;;;;383.23;361.43;;;3.30;99.90;;;;;;5025477;28;20478;-60
2023/01/19 11:26:39;;;;;;;402.38;379.73;;;3.30;99.90;;;;;;5024257;28;20449;-60
2023/01/19 11:29:13;;;;;;;421.00;396.92;;;3.20;99.90;;;;;;5023839;28;20432;-60
2023/01/19 11:31:39;;;;;;;398.77;375.80;;;3.20;99.90;;;;;;5022871;28;20387;-60
2023/01/19 11:34:33;;;;;;;427.90;403.60;;;3.30;99.90;;;;;;5023994;28;21036;-60
2023/01/19 11:37:19;;;;;;;441.20;416.60;;;3.20;99.90;;;;;;5015461;28;21076;-58
2023/01/19 11:39:51;;;;;;;525.28;494.83;;;3.20;99.90;;;;;;5040522;28;20391;-60
2023/01/19 11:42:17;;;;;;;495.47;466.43;;;3.20;99.90;;;;;;5022117;28;20449;-59
2023/01/19 11:45:02;;;;;;;493.30;464.00;;;3.30;99.90;;;;;;5019957;28;20517;-60
2023/01/19 11:47:41;;;;;;;423.38;398.35;;;3.30;99.90;;;;;;5018183;28;20508;-60
2023/01/19 11:50:23;;;;;;;499.48;470.75;;;3.30;99.90;;;;;;5020808;28;20474;-60
2023/01/19 11:52:52;;;;;;;572.73;539.60;;;3.30;99.90;;;;;;5023094;28;20410;-60
2023/01/19 11:55:42;;;;;;;600.67;564.03;;;3.20;99.90;;;;;;5023985;28;20403;-60
2023/01/19 11:58:14;;;;;;;599.23;563.83;;;3.20;99.90;;;;;;5023299;28;20438;-59
2023/01/19 12:00:45;;;;;;;598.58;563.28;;;3.20;99.90;;;;;;5023829;28;20695;-60
2023/01/19 12:03:29;;;;;;;601.25;564.35;;;3.20;99.90;;;;;;5021460;28;20379;-60
2023/01/19 12:06:00;;;;;;;626.10;587.60;;;3.20;99.90;;;;;;5021663;28;21049;-60
2023/01/19 12:08:49;;;;;;;590.97;555.33;;;3.30;99.90;;;;;;5022268;28;20707;-59
2023/01/19 12:11:23;;;;;;;573.90;539.30;;;3.30;99.90;;;;;;5024515;28;20401;-60
2023/01/19 12:13:51;;;;;;;595.85;559.95;;;3.30;99.90;;;;;;5027368;28;20496;-61
2023/01/19 12:16:20;;;;;;;571.78;537.55;;;3.30;99.90;;;;;;5028617;28;20399;-60
2023/01/19 12:18:58;;;;;;;600.08;563.25;;;3.30;99.90;;;;;;5028422;28;20386;-60
2023/01/19 12:21:24;;;;;;;505.83;476.57;;;3.40;99.90;;;;;;5029827;28;20387;-60
2023/01/19 12:24:19;;;;;;;558.00;525.13;;;3.40;99.90;;;;;;5031012;28;20481;-60
2023/01/19 12:27:03;;;;;;;548.28;515.42;;;3.40;99.90;;;;;;5034607;28;20383;-61
2023/01/19 12:29:32;;;;;;;590.67;554.97;;;3.40;99.90;;;;;;5027446;28;20398;-60
2023/01/19 12:32:12;;;;;;;551.43;518.77;;;3.40;99.90;;;;;;5027716;28;20375;-60
2023/01/19 12:34:50;;;;;;;526.88;496.00;;;3.50;99.90;;;;;;5027576;28;20398;-60
2023/01/19 12:37:39;;;;;;;535.38;504.27;;;3.50;99.90;;;;;;5025706;28;20395;-60
2023/01/19 12:40:23;;;;;;;546.27;514.17;;;3.50;99.90;;;;;;5025773;28;20367;-60